KTVF/TVF METAR and TAF weather

Enter ICAO airport designator
Station Type Date Time Source
KTVF METAR 2020/07/03 11:56 UTC NOAA

KTVF 031156Z AUTO 12008KT 10SM CLR 23/21 A3006 RMK AO2 SLP174 T02280206 10239 20217 55003


Station Type Date Time Source
KTVF Decoded METAR 2020/07/03 11:56 UTC NOAA

Thief River Falls, Thief River Falls Regional Airport, MN, United States (KTVF) 48-04N 096-11W
Jul 03, 2020 - 07:56 AM EDT / 2020.07.03 1156 UTC
Wind: from the ESE (120 degrees) at 9 MPH (8 KT):0
Visibility: 10 mile(s):0
Sky conditions: clear
Temperature: 73.0 F (22.8 C)
Dew Point: 69.1 F (20.6 C)
Relative Humidity: 87%
Pressure (altimeter): 30.06 in. Hg (1017 hPa)
Pressure tendency: 0.01 inches (0.3 hPa) lower than three hours ago
ob: KTVF 031156Z AUTO 12008KT 10SM CLR 23/21 A3006 RMK AO2 SLP174 T02280206 10239 20217 55003
cycle: 12

Station Type Date Time Source
KTVF TAF 2020/07/03 12:30 UTC NOAA

TAF KTVF 031127Z 0312/0412 15007KT P6SM SCT250
FM031400 18006KT P6SM SCT250
FM040600 09005KT P6SM FEW250

Example: see airport list